Havelock, North Dakota
Current Conditions -  °F | °C
As of 7:56 PM on Saturday 25 Oct 2014 (Local Time) from KDIK Reporting Station
Clear Clear  
Wind Chill: 51°   Ceiling: Unl
Heat Index: 51°   Visibility: 10mi
Dew Point: 31°   Wind: 20mph
Humidity: 46%   Direction: 140°SE
Pressure: 29.87"   Gusts: NA
Location:  46.4704°N, 102.78°W
Report Text: KDIK 260156Z AUTO 14017KT 10SM CLR 11/M01 A2987 RMK AO2 SLP127 T01061006
Loading
Personal Weather Stations






























Interactive Weather Map
Tropical Storm Tracking
New forecast layout! Learn more

10-Day Weather Forecast

Advertisements
Track Severe Weather on mobile